sensor_id;sensor_type;location;lat;lon;timestamp;temperature;humidity
15357;DHT22;7778;48.792;9.260;2023-07-16T00:00:13;20.20;99.90
15357;DHT22;7778;48.792;9.260;2023-07-16T00:02:59;20.10;99.90
15357;DHT22;7778;48.792;9.260;2023-07-16T00:05:44;20.10;99.90
15357;DHT22;7778;48.792;9.260;2023-07-16T00:08:31;20.20;99.90
15357;DHT22;7778;48.792;9.260;2023-07-16T00:11:17;20.10;99.90
15357;DHT22;7778;48.792;9.260;2023-07-16T00:14:03;20.10;99.90
15357;DHT22;7778;48.792;9.260;2023-07-16T00:16:49;19.90;99.90
15357;DHT22;7778;48.792;9.260;2023-07-16T00:19:34;20.00;99.90
15357;DHT22;7778;48.792;9.260;2023-07-16T00:22:20;19.90;99.90
15357;DHT22;7778;48.792;9.260;2023-07-16T00:25:08;19.90;99.90
15357;DHT22;7778;48.792;9.260;2023-07-16T00:27:54;19.80;99.90
15357;DHT22;7778;48.792;9.260;2023-07-16T00:30:39;19.90;99.90
15357;DHT22;7778;48.792;9.260;2023-07-16T00:33:25;19.70;99.90
15357;DHT22;7778;48.792;9.260;2023-07-16T00:36:11;19.80;99.90
15357;DHT22;7778;48.792;9.260;2023-07-16T00:38:56;19.90;99.90
15357;DHT22;7778;48.792;9.260;2023-07-16T00:41:43;20.00;99.90
15357;DHT22;7778;48.792;9.260;2023-07-16T00:44:29;20.10;99.90
15357;DHT22;7778;48.792;9.260;2023-07-16T00:47:15;20.20;99.90
15357;DHT22;7778;48.792;9.260;2023-07-16T00:50:01;20.30;99.90
15357;DHT22;7778;48.792;9.260;2023-07-16T00:52:47;20.30;99.90
15357;DHT22;7778;48.792;9.260;2023-07-16T00:55:34;20.40;99.90
15357;DHT22;7778;48.792;9.260;2023-07-16T00:58:22;20.50;99.90
15357;DHT22;7778;48.792;9.260;2023-07-16T01:01:08;20.40;99.90
15357;DHT22;7778;48.792;9.260;2023-07-16T01:03:53;20.50;99.90
15357;DHT22;7778;48.792;9.260;2023-07-16T01:06:41;20.50;99.90
15357;DHT22;7778;48.792;9.260;2023-07-16T01:09:28;20.50;99.90
15357;DHT22;7778;48.792;9.260;2023-07-16T01:12:14;20.50;99.90
15357;DHT22;7778;48.792;9.260;2023-07-16T01:15:02;20.40;99.90
15357;DHT22;7778;48.792;9.260;2023-07-16T01:17:48;20.40;99.90
15357;DHT22;7778;48.792;9.260;2023-07-16T01:20:34;20.30;99.90
15357;DHT22;7778;48.792;9.260;2023-07-16T01:23:44;20.40;99.90
15357;DHT22;7778;48.792;9.260;2023-07-16T01:27:17;20.50;99.90
15357;DHT22;7778;48.792;9.260;2023-07-16T01:30:14;20.50;99.90
15357;DHT22;7778;48.792;9.260;2023-07-16T01:33:01;20.60;99.90
15357;DHT22;7778;48.792;9.260;2023-07-16T01:35:48;20.40;99.90
15357;DHT22;7778;48.792;9.260;2023-07-16T01:38:36;20.40;99.90
15357;DHT22;7778;48.792;9.260;2023-07-16T01:41:21;20.30;99.90
15357;DHT22;7778;48.792;9.260;2023-07-16T01:44:09;20.30;99.90
15357;DHT22;7778;48.792;9.260;2023-07-16T01:47:08;20.50;99.90
15357;DHT22;7778;48.792;9.260;2023-07-16T01:49:55;20.60;99.90
15357;DHT22;7778;48.792;9.260;2023-07-16T01:52:40;20.60;99.90
15357;DHT22;7778;48.792;9.260;2023-07-16T01:55:26;20.40;99.90
15357;DHT22;7778;48.792;9.260;2023-07-16T01:58:12;20.10;99.90
15357;DHT22;7778;48.792;9.260;2023-07-16T02:00:58;19.90;99.90
15357;DHT22;7778;48.792;9.260;2023-07-16T02:03:45;20.00;99.90
15357;DHT22;7778;48.792;9.260;2023-07-16T02:06:30;20.20;99.90
15357;DHT22;7778;48.792;9.260;2023-07-16T02:09:15;20.30;99.90
15357;DHT22;7778;48.792;9.260;2023-07-16T02:12:01;20.40;99.90
15357;DHT22;7778;48.792;9.260;2023-07-16T02:14:46;20.40;99.90
15357;DHT22;7778;48.792;9.260;2023-07-16T02:17:32;20.30;99.90
15357;DHT22;7778;48.792;9.260;2023-07-16T02:20:19;20.30;99.90
15357;DHT22;7778;48.792;9.260;2023-07-16T02:23:05;20.00;99.90
15357;DHT22;7778;48.792;9.260;2023-07-16T02:25:50;19.90;99.90
15357;DHT22;7778;48.792;9.260;2023-07-16T02:28:36;19.60;99.90
15357;DHT22;7778;48.792;9.260;2023-07-16T02:31:21;19.20;99.90
15357;DHT22;7778;48.792;9.260;2023-07-16T02:34:07;19.10;99.90
15357;DHT22;7778;48.792;9.260;2023-07-16T02:36:54;19.10;99.90
15357;DHT22;7778;48.792;9.260;2023-07-16T02:39:42;19.20;99.90
15357;DHT22;7778;48.792;9.260;2023-07-16T02:42:29;19.30;99.90
15357;DHT22;7778;48.792;9.260;2023-07-16T02:45:15;19.40;99.90
15357;DHT22;7778;48.792;9.260;2023-07-16T02:48:01;19.30;99.90
15357;DHT22;7778;48.792;9.260;2023-07-16T02:50:47;19.40;99.90
15357;DHT22;7778;48.792;9.260;2023-07-16T02:53:34;19.40;99.90
15357;DHT22;7778;48.792;9.260;2023-07-16T02:56:20;19.40;99.90
15357;DHT22;7778;48.792;9.260;2023-07-16T02:59:05;19.40;99.90
15357;DHT22;7778;48.792;9.260;2023-07-16T03:01:51;19.00;99.90
15357;DHT22;7778;48.792;9.260;2023-07-16T03:04:37;18.90;99.90
15357;DHT22;7778;48.792;9.260;2023-07-16T03:07:23;18.70;99.90
15357;DHT22;7778;48.792;9.260;2023-07-16T03:10:10;18.70;99.90
15357;DHT22;7778;48.792;9.260;2023-07-16T03:12:56;18.90;99.90
15357;DHT22;7778;48.792;9.260;2023-07-16T03:15:42;19.10;99.90
15357;DHT22;7778;48.792;9.260;2023-07-16T03:18:28;19.20;99.90
15357;DHT22;7778;48.792;9.260;2023-07-16T03:21:14;19.10;99.90
15357;DHT22;7778;48.792;9.260;2023-07-16T03:24:00;19.40;99.90
15357;DHT22;7778;48.792;9.260;2023-07-16T03:26:46;19.40;99.90
15357;DHT22;7778;48.792;9.260;2023-07-16T03:29:32;19.30;99.90
15357;DHT22;7778;48.792;9.260;2023-07-16T03:32:18;19.30;99.90
15357;DHT22;7778;48.792;9.260;2023-07-16T03:35:04;19.30;99.90
15357;DHT22;7778;48.792;9.260;2023-07-16T03:37:50;19.00;99.90
15357;DHT22;7778;48.792;9.260;2023-07-16T03:40:36;18.90;99.90
15357;DHT22;7778;48.792;9.260;2023-07-16T03:43:23;18.80;99.90
15357;DHT22;7778;48.792;9.260;2023-07-16T03:46:09;18.80;99.90
15357;DHT22;7778;48.792;9.260;2023-07-16T03:48:54;18.80;99.90
15357;DHT22;7778;48.792;9.260;2023-07-16T03:51:40;18.80;99.90
15357;DHT22;7778;48.792;9.260;2023-07-16T03:54:25;18.80;99.90
15357;DHT22;7778;48.792;9.260;2023-07-16T03:57:11;18.80;99.90
15357;DHT22;7778;48.792;9.260;2023-07-16T04:00:00;18.80;99.90
15357;DHT22;7778;48.792;9.260;2023-07-16T04:02:47;18.80;99.90
15357;DHT22;7778;48.792;9.260;2023-07-16T04:05:32;18.80;99.90
15357;DHT22;7778;48.792;9.260;2023-07-16T04:08:18;18.70;99.90
15357;DHT22;7778;48.792;9.260;2023-07-16T04:11:04;18.80;99.90
15357;DHT22;7778;48.792;9.260;2023-07-16T04:13:50;18.70;99.90
15357;DHT22;7778;48.792;9.260;2023-07-16T04:16:37;18.70;99.90
15357;DHT22;7778;48.792;9.260;2023-07-16T04:19:23;18.90;99.90
15357;DHT22;7778;48.792;9.260;2023-07-16T04:22:09;18.70;99.90
15357;DHT22;7778;48.792;9.260;2023-07-16T04:24:54;18.90;99.90
15357;DHT22;7778;48.792;9.260;2023-07-16T04:27:40;19.00;99.90
15357;DHT22;7778;48.792;9.260;2023-07-16T04:30:27;18.90;99.90
15357;DHT22;7778;48.792;9.260;2023-07-16T04:33:14;18.90;99.90
15357;DHT22;7778;48.792;9.260;2023-07-16T04:36:00;18.90;99.90
15357;DHT22;7778;48.792;9.260;2023-07-16T04:38:46;18.90;99.90
15357;DHT22;7778;48.792;9.260;2023-07-16T04:41:31;19.00;99.90
15357;DHT22;7778;48.792;9.260;2023-07-16T04:44:17;19.00;99.90
15357;DHT22;7778;48.792;9.260;2023-07-16T04:47:02;18.80;99.90
15357;DHT22;7778;48.792;9.260;2023-07-16T04:49:49;18.80;99.90
15357;DHT22;7778;48.792;9.260;2023-07-16T04:52:35;18.90;99.90
15357;DHT22;7778;48.792;9.260;2023-07-16T04:55:21;19.00;99.90
15357;DHT22;7778;48.792;9.260;2023-07-16T04:58:06;19.20;99.90
15357;DHT22;7778;48.792;9.260;2023-07-16T05:00:52;19.10;99.90
15357;DHT22;7778;48.792;9.260;2023-07-16T05:03:38;19.20;99.90
15357;DHT22;7778;48.792;9.260;2023-07-16T05:06:25;19.30;99.90
15357;DHT22;7778;48.792;9.260;2023-07-16T05:09:10;19.30;99.90
15357;DHT22;7778;48.792;9.260;2023-07-16T05:11:56;19.30;99.90
15357;DHT22;7778;48.792;9.260;2023-07-16T05:14:44;19.40;99.90
15357;DHT22;7778;48.792;9.260;2023-07-16T05:17:30;19.40;99.90
15357;DHT22;7778;48.792;9.260;2023-07-16T05:20:16;19.30;99.90
15357;DHT22;7778;48.792;9.260;2023-07-16T05:23:03;19.30;99.90
15357;DHT22;7778;48.792;9.260;2023-07-16T05:25:49;19.20;99.90
15357;DHT22;7778;48.792;9.260;2023-07-16T05:28:35;19.40;99.90
15357;DHT22;7778;48.792;9.260;2023-07-16T05:31:21;19.30;99.90
15357;DHT22;7778;48.792;9.260;2023-07-16T05:34:07;19.20;99.90
15357;DHT22;7778;48.792;9.260;2023-07-16T05:36:53;19.20;99.90
15357;DHT22;7778;48.792;9.260;2023-07-16T05:39:40;19.10;99.90
15357;DHT22;7778;48.792;9.260;2023-07-16T05:42:26;19.00;99.90
15357;DHT22;7778;48.792;9.260;2023-07-16T05:45:12;19.10;99.90
15357;DHT22;7778;48.792;9.260;2023-07-16T05:47:57;19.10;99.90
15357;DHT22;7778;48.792;9.260;2023-07-16T05:50:43;19.20;99.90
15357;DHT22;7778;48.792;9.260;2023-07-16T05:53:29;19.30;99.90
15357;DHT22;7778;48.792;9.260;2023-07-16T05:56:16;19.40;99.90
15357;DHT22;7778;48.792;9.260;2023-07-16T05:59:02;19.40;99.90
15357;DHT22;7778;48.792;9.260;2023-07-16T06:01:48;19.60;99.90
15357;DHT22;7778;48.792;9.260;2023-07-16T06:04:33;19.90;99.90
15357;DHT22;7778;48.792;9.260;2023-07-16T06:07:19;19.90;99.90
15357;DHT22;7778;48.792;9.260;2023-07-16T06:10:05;20.40;99.90
15357;DHT22;7778;48.792;9.260;2023-07-16T06:12:53;20.60;99.90
15357;DHT22;7778;48.792;9.260;2023-07-16T06:15:38;21.10;99.90
15357;DHT22;7778;48.792;9.260;2023-07-16T06:18:24;21.20;99.90
15357;DHT22;7778;48.792;9.260;2023-07-16T06:21:09;20.90;99.90
15357;DHT22;7778;48.792;9.260;2023-07-16T06:23:55;20.50;99.90
15357;DHT22;7778;48.792;9.260;2023-07-16T06:26:41;20.30;99.90
15357;DHT22;7778;48.792;9.260;2023-07-16T06:29:28;20.10;99.90
15357;DHT22;7778;48.792;9.260;2023-07-16T06:32:13;19.90;99.90
15357;DHT22;7778;48.792;9.260;2023-07-16T06:34:59;19.80;99.90
15357;DHT22;7778;48.792;9.260;2023-07-16T06:37:44;19.70;99.90
15357;DHT22;7778;48.792;9.260;2023-07-16T06:40:31;19.70;99.90
15357;DHT22;7778;48.792;9.260;2023-07-16T06:43:17;19.70;99.90
15357;DHT22;7778;48.792;9.260;2023-07-16T06:46:04;19.90;99.90
15357;DHT22;7778;48.792;9.260;2023-07-16T06:48:50;20.00;99.90
15357;DHT22;7778;48.792;9.260;2023-07-16T06:51:35;20.30;99.90
15357;DHT22;7778;48.792;9.260;2023-07-16T06:54:21;20.40;99.90
15357;DHT22;7778;48.792;9.260;2023-07-16T06:57:06;20.50;99.90
15357;DHT22;7778;48.792;9.260;2023-07-16T06:59:52;20.60;99.90
15357;DHT22;7778;48.792;9.260;2023-07-16T07:02:39;20.70;99.90
15357;DHT22;7778;48.792;9.260;2023-07-16T07:05:25;21.10;99.90
15357;DHT22;7778;48.792;9.260;2023-07-16T07:08:10;21.50;99.90
15357;DHT22;7778;48.792;9.260;2023-07-16T07:10:56;22.20;99.90
15357;DHT22;7778;48.792;9.260;2023-07-16T07:13:42;23.30;99.90
15357;DHT22;7778;48.792;9.260;2023-07-16T07:16:28;24.80;99.90
15357;DHT22;7778;48.792;9.260;2023-07-16T07:19:14;26.60;99.90
15357;DHT22;7778;48.792;9.260;2023-07-16T07:22:00;27.90;99.90
15357;DHT22;7778;48.792;9.260;2023-07-16T07:24:46;29.30;99.90
15357;DHT22;7778;48.792;9.260;2023-07-16T07:27:31;30.70;99.90
15357;DHT22;7778;48.792;9.260;2023-07-16T07:30:17;32.00;99.90
15357;DHT22;7778;48.792;9.260;2023-07-16T07:33:03;32.10;99.90
15357;DHT22;7778;48.792;9.260;2023-07-16T07:35:53;30.60;99.90
15357;DHT22;7778;48.792;9.260;2023-07-16T07:38:39;30.80;99.90
15357;DHT22;7778;48.792;9.260;2023-07-16T07:41:24;30.30;99.90
15357;DHT22;7778;48.792;9.260;2023-07-16T07:44:10;28.50;99.90
15357;DHT22;7778;48.792;9.260;2023-07-16T07:46:55;27.40;99.90
15357;DHT22;7778;48.792;9.260;2023-07-16T07:49:41;26.60;99.90
15357;DHT22;7778;48.792;9.260;2023-07-16T07:52:28;26.50;99.90
15357;DHT22;7778;48.792;9.260;2023-07-16T07:55:14;26.90;99.90
15357;DHT22;7778;48.792;9.260;2023-07-16T07:58:00;26.30;99.90
15357;DHT22;7778;48.792;9.260;2023-07-16T08:00:46;26.00;99.90
15357;DHT22;7778;48.792;9.260;2023-07-16T08:03:31;25.40;99.90
15357;DHT22;7778;48.792;9.260;2023-07-16T08:06:20;25.00;99.90
15357;DHT22;7778;48.792;9.260;2023-07-16T08:09:07;25.10;99.90
15357;DHT22;7778;48.792;9.260;2023-07-16T08:11:53;25.10;99.90
15357;DHT22;7778;48.792;9.260;2023-07-16T08:14:39;25.50;99.90
15357;DHT22;7778;48.792;9.260;2023-07-16T08:17:26;25.90;99.90
15357;DHT22;7778;48.792;9.260;2023-07-16T08:20:12;25.50;99.90
15357;DHT22;7778;48.792;9.260;2023-07-16T08:22:58;24.90;99.90
15357;DHT22;7778;48.792;9.260;2023-07-16T08:25:44;24.70;99.90
15357;DHT22;7778;48.792;9.260;2023-07-16T08:28:30;25.50;99.90
15357;DHT22;7778;48.792;9.260;2023-07-16T08:31:16;27.10;99.90
15357;DHT22;7778;48.792;9.260;2023-07-16T08:34:01;28.90;99.90
15357;DHT22;7778;48.792;9.260;2023-07-16T08:36:47;29.50;99.90
15357;DHT22;7778;48.792;9.260;2023-07-16T08:39:32;28.50;99.90
15357;DHT22;7778;48.792;9.260;2023-07-16T08:42:20;26.90;99.90
15357;DHT22;7778;48.792;9.260;2023-07-16T08:45:08;26.00;99.90
15357;DHT22;7778;48.792;9.260;2023-07-16T08:47:55;25.60;99.90
15357;DHT22;7778;48.792;9.260;2023-07-16T08:50:42;26.70;99.90
15357;DHT22;7778;48.792;9.260;2023-07-16T08:53:27;27.00;99.90
15357;DHT22;7778;48.792;9.260;2023-07-16T08:56:14;26.40;99.90
15357;DHT22;7778;48.792;9.260;2023-07-16T08:59:01;25.20;99.90
15357;DHT22;7778;48.792;9.260;2023-07-16T09:01:48;24.80;99.90
15357;DHT22;7778;48.792;9.260;2023-07-16T09:04:34;25.30;99.90
15357;DHT22;7778;48.792;9.260;2023-07-16T09:07:19;26.80;99.90
15357;DHT22;7778;48.792;9.260;2023-07-16T09:10:06;27.30;99.90
15357;DHT22;7778;48.792;9.260;2023-07-16T09:12:52;28.70;99.90
15357;DHT22;7778;48.792;9.260;2023-07-16T09:15:39;30.60;99.90
15357;DHT22;7778;48.792;9.260;2023-07-16T09:18:28;31.20;99.90
15357;DHT22;7778;48.792;9.260;2023-07-16T09:21:14;31.20;99.90
15357;DHT22;7778;48.792;9.260;2023-07-16T09:24:00;31.20;99.90
15357;DHT22;7778;48.792;9.260;2023-07-16T09:26:49;31.50;99.90
15357;DHT22;7778;48.792;9.260;2023-07-16T09:29:38;32.10;99.40
15357;DHT22;7778;48.792;9.260;2023-07-16T09:32:32;32.30;94.50
15357;DHT22;7778;48.792;9.260;2023-07-16T09:35:18;32.30;94.10
15357;DHT22;7778;48.792;9.260;2023-07-16T09:38:04;31.20;91.60
15357;DHT22;7778;48.792;9.260;2023-07-16T09:40:51;30.00;92.10
15357;DHT22;7778;48.792;9.260;2023-07-16T09:43:38;30.40;94.10
15357;DHT22;7778;48.792;9.260;2023-07-16T09:46:24;31.10;92.00
15357;DHT22;7778;48.792;9.260;2023-07-16T09:49:13;31.40;91.80
15357;DHT22;7778;48.792;9.260;2023-07-16T09:52:01;30.80;90.80
15357;DHT22;7778;48.792;9.260;2023-07-16T09:54:49;30.70;92.00
15357;DHT22;7778;48.792;9.260;2023-07-16T09:57:39;29.70;84.90
15357;DHT22;7778;48.792;9.260;2023-07-16T10:00:27;29.10;93.50
15357;DHT22;7778;48.792;9.260;2023-07-16T10:03:15;28.20;93.70
15357;DHT22;7778;48.792;9.260;2023-07-16T10:06:09;27.70;94.20
15357;DHT22;7778;48.792;9.260;2023-07-16T10:08:54;27.30;95.00
15357;DHT22;7778;48.792;9.260;2023-07-16T10:11:43;27.20;95.30
15357;DHT22;7778;48.792;9.260;2023-07-16T10:14:30;28.10;93.80
15357;DHT22;7778;48.792;9.260;2023-07-16T10:17:17;28.70;95.60
15357;DHT22;7778;48.792;9.260;2023-07-16T10:20:07;30.10;94.30
15357;DHT22;7778;48.792;9.260;2023-07-16T10:22:56;30.00;93.10
15357;DHT22;7778;48.792;9.260;2023-07-16T10:25:57;30.30;92.70
15357;DHT22;7778;48.792;9.260;2023-07-16T10:28:44;30.80;90.70
15357;DHT22;7778;48.792;9.260;2023-07-16T10:31:29;30.40;92.40
15357;DHT22;7778;48.792;9.260;2023-07-16T10:34:22;30.00;91.90
15357;DHT22;7778;48.792;9.260;2023-07-16T10:37:09;29.90;94.40
15357;DHT22;7778;48.792;9.260;2023-07-16T10:39:59;30.10;91.90
15357;DHT22;7778;48.792;9.260;2023-07-16T10:42:45;30.30;87.80
15357;DHT22;7778;48.792;9.260;2023-07-16T10:45:31;30.50;92.80
15357;DHT22;7778;48.792;9.260;2023-07-16T10:48:17;31.00;91.30
15357;DHT22;7778;48.792;9.260;2023-07-16T10:51:02;30.70;86.80
15357;DHT22;7778;48.792;9.260;2023-07-16T10:53:48;30.60;92.30
15357;DHT22;7778;48.792;9.260;2023-07-16T10:56:37;30.90;91.50
15357;DHT22;7778;48.792;9.260;2023-07-16T10:59:22;30.70;88.00
15357;DHT22;7778;48.792;9.260;2023-07-16T11:02:10;29.90;89.20
15357;DHT22;7778;48.792;9.260;2023-07-16T11:04:57;29.70;90.70
15357;DHT22;7778;48.792;9.260;2023-07-16T11:07:45;29.70;92.70
15357;DHT22;7778;48.792;9.260;2023-07-16T11:10:31;29.50;92.10
15357;DHT22;7778;48.792;9.260;2023-07-16T11:13:25;29.20;93.20
15357;DHT22;7778;48.792;9.260;2023-07-16T11:16:11;29.20;94.30
15357;DHT22;7778;48.792;9.260;2023-07-16T11:18:57;29.00;94.10
15357;DHT22;7778;48.792;9.260;2023-07-16T11:21:43;28.70;93.50
15357;DHT22;7778;48.792;9.260;2023-07-16T11:24:35;28.50;94.40
15357;DHT22;7778;48.792;9.260;2023-07-16T11:27:23;28.60;94.90
15357;DHT22;7778;48.792;9.260;2023-07-16T11:30:12;28.10;93.10
15357;DHT22;7778;48.792;9.260;2023-07-16T11:32:58;28.10;95.30
15357;DHT22;7778;48.792;9.260;2023-07-16T11:35:43;28.60;94.60
15357;DHT22;7778;48.792;9.260;2023-07-16T11:38:29;29.70;94.70
15357;DHT22;7778;48.792;9.260;2023-07-16T11:41:20;30.40;92.90
15357;DHT22;7778;48.792;9.260;2023-07-16T11:44:07;30.30;90.20
15357;DHT22;7778;48.792;9.260;2023-07-16T11:47:00;30.30;90.80
15357;DHT22;7778;48.792;9.260;2023-07-16T11:49:48;30.20;90.70
15357;DHT22;7778;48.792;9.260;2023-07-16T11:52:34;30.10;91.60
15357;DHT22;7778;48.792;9.260;2023-07-16T11:55:20;29.70;91.50
15357;DHT22;7778;48.792;9.260;2023-07-16T11:58:05;29.70;90.60
15357;DHT22;7778;48.792;9.260;2023-07-16T12:00:51;29.60;92.30
15357;DHT22;7778;48.792;9.260;2023-07-16T12:03:39;29.60;89.50
15357;DHT22;7778;48.792;9.260;2023-07-16T12:06:25;29.40;89.50
15357;DHT22;7778;48.792;9.260;2023-07-16T12:09:10;28.90;89.90
15357;DHT22;7778;48.792;9.260;2023-07-16T12:11:57;28.40;91.40
15357;DHT22;7778;48.792;9.260;2023-07-16T12:14:44;27.20;90.00
15357;DHT22;7778;48.792;9.260;2023-07-16T12:17:30;26.40;93.50
15357;DHT22;7778;48.792;9.260;2023-07-16T12:20:17;26.40;92.30
15357;DHT22;7778;48.792;9.260;2023-07-16T12:23:02;26.70;93.10
15357;DHT22;7778;48.792;9.260;2023-07-16T12:25:49;27.20;91.60
15357;DHT22;7778;48.792;9.260;2023-07-16T12:28:35;27.70;94.60
15357;DHT22;7778;48.792;9.260;2023-07-16T12:31:21;28.40;95.30
15357;DHT22;7778;48.792;9.260;2023-07-16T12:34:13;28.70;94.50
15357;DHT22;7778;48.792;9.260;2023-07-16T12:37:01;28.90;94.70
15357;DHT22;7778;48.792;9.260;2023-07-16T12:39:47;28.70;93.20
15357;DHT22;7778;48.792;9.260;2023-07-16T12:42:32;28.40;93.00
15357;DHT22;7778;48.792;9.260;2023-07-16T12:45:18;28.30;91.60
15357;DHT22;7778;48.792;9.260;2023-07-16T12:48:04;27.80;89.20
15357;DHT22;7778;48.792;9.260;2023-07-16T12:50:51;27.80;93.20
15357;DHT22;7778;48.792;9.260;2023-07-16T12:53:38;27.70;93.40
15357;DHT22;7778;48.792;9.260;2023-07-16T12:56:24;27.50;93.80
15357;DHT22;7778;48.792;9.260;2023-07-16T12:59:09;27.50;94.70
15357;DHT22;7778;48.792;9.260;2023-07-16T13:01:55;27.30;93.70
15357;DHT22;7778;48.792;9.260;2023-07-16T13:04:40;27.10;93.80
15357;DHT22;7778;48.792;9.260;2023-07-16T13:07:27;27.00;94.90
15357;DHT22;7778;48.792;9.260;2023-07-16T13:10:13;27.00;94.00
15357;DHT22;7778;48.792;9.260;2023-07-16T13:12:59;27.10;94.60
15357;DHT22;7778;48.792;9.260;2023-07-16T13:15:45;27.10;95.00
15357;DHT22;7778;48.792;9.260;2023-07-16T13:18:32;27.20;96.10
15357;DHT22;7778;48.792;9.260;2023-07-16T13:21:17;27.80;96.70
15357;DHT22;7778;48.792;9.260;2023-07-16T13:24:03;28.20;93.00
15357;DHT22;7778;48.792;9.260;2023-07-16T13:26:51;28.40;94.10
15357;DHT22;7778;48.792;9.260;2023-07-16T13:29:37;28.40;93.20
15357;DHT22;7778;48.792;9.260;2023-07-16T13:32:22;28.00;91.20
15357;DHT22;7778;48.792;9.260;2023-07-16T13:35:08;28.00;94.90
15357;DHT22;7778;48.792;9.260;2023-07-16T13:37:54;28.40;93.40
15357;DHT22;7778;48.792;9.260;2023-07-16T13:40:40;28.80;94.20
15357;DHT22;7778;48.792;9.260;2023-07-16T13:43:27;29.20;92.90
15357;DHT22;7778;48.792;9.260;2023-07-16T13:46:13;28.90;91.10
15357;DHT22;7778;48.792;9.260;2023-07-16T13:48:58;28.90;93.10
15357;DHT22;7778;48.792;9.260;2023-07-16T13:51:44;28.80;92.20
15357;DHT22;7778;48.792;9.260;2023-07-16T13:54:30;28.70;92.20
15357;DHT22;7778;48.792;9.260;2023-07-16T13:57:16;28.60;93.10
15357;DHT22;7778;48.792;9.260;2023-07-16T14:00:04;28.50;91.00
15357;DHT22;7778;48.792;9.260;2023-07-16T14:02:53;28.40;94.20
15357;DHT22;7778;48.792;9.260;2023-07-16T14:05:39;28.50;92.40
15357;DHT22;7778;48.792;9.260;2023-07-16T14:08:25;28.70;93.30
15357;DHT22;7778;48.792;9.260;2023-07-16T14:11:12;28.20;92.40
15357;DHT22;7778;48.792;9.260;2023-07-16T14:13:57;28.40;95.20
15357;DHT22;7778;48.792;9.260;2023-07-16T14:16:44;28.30;91.90
15357;DHT22;7778;48.792;9.260;2023-07-16T14:19:30;27.90;93.00
15357;DHT22;7778;48.792;9.260;2023-07-16T14:22:16;27.90;94.30
15357;DHT22;7778;48.792;9.260;2023-07-16T14:25:08;27.90;93.70
15357;DHT22;7778;48.792;9.260;2023-07-16T14:27:57;28.00;94.60
15357;DHT22;7778;48.792;9.260;2023-07-16T14:30:42;27.90;93.70
15357;DHT22;7778;48.792;9.260;2023-07-16T14:33:38;27.80;94.30
15357;DHT22;7778;48.792;9.260;2023-07-16T14:36:30;27.80;94.50
15357;DHT22;7778;48.792;9.260;2023-07-16T14:39:16;27.80;93.70
15357;DHT22;7778;48.792;9.260;2023-07-16T14:42:05;27.90;95.10
15357;DHT22;7778;48.792;9.260;2023-07-16T14:44:51;27.80;94.60
15357;DHT22;7778;48.792;9.260;2023-07-16T14:47:37;27.80;94.90
15357;DHT22;7778;48.792;9.260;2023-07-16T14:50:24;27.70;93.00
15357;DHT22;7778;48.792;9.260;2023-07-16T14:53:10;27.40;92.00
15357;DHT22;7778;48.792;9.260;2023-07-16T14:55:56;27.10;92.90
15357;DHT22;7778;48.792;9.260;2023-07-16T14:58:42;27.00;92.40
15357;DHT22;7778;48.792;9.260;2023-07-16T15:01:27;27.10;93.00
15357;DHT22;7778;48.792;9.260;2023-07-16T15:04:13;27.10;93.30
15357;DHT22;7778;48.792;9.260;2023-07-16T15:07:00;27.60;95.70
15357;DHT22;7778;48.792;9.260;2023-07-16T15:09:46;28.10;94.80
15357;DHT22;7778;48.792;9.260;2023-07-16T15:12:32;28.20;95.10
15357;DHT22;7778;48.792;9.260;2023-07-16T15:15:18;28.40;96.00
15357;DHT22;7778;48.792;9.260;2023-07-16T15:18:03;28.50;94.40
15357;DHT22;7778;48.792;9.260;2023-07-16T15:20:49;28.40;94.30
15357;DHT22;7778;48.792;9.260;2023-07-16T15:23:43;28.30;94.80
15357;DHT22;7778;48.792;9.260;2023-07-16T15:26:29;28.10;95.00
15357;DHT22;7778;48.792;9.260;2023-07-16T15:29:15;27.90;94.20
15357;DHT22;7778;48.792;9.260;2023-07-16T15:32:01;27.60;94.80
15357;DHT22;7778;48.792;9.260;2023-07-16T15:34:46;27.30;95.70
15357;DHT22;7778;48.792;9.260;2023-07-16T15:37:32;27.20;95.40
15357;DHT22;7778;48.792;9.260;2023-07-16T15:40:19;26.90;96.90
15357;DHT22;7778;48.792;9.260;2023-07-16T15:43:04;26.60;98.60
15357;DHT22;7778;48.792;9.260;2023-07-16T15:45:50;26.60;99.10
15357;DHT22;7778;48.792;9.260;2023-07-16T15:48:35;26.80;99.90
15357;DHT22;7778;48.792;9.260;2023-07-16T15:51:25;26.90;99.50
15357;DHT22;7778;48.792;9.260;2023-07-16T15:54:11;26.90;99.90
15357;DHT22;7778;48.792;9.260;2023-07-16T15:56:58;26.70;99.10
15357;DHT22;7778;48.792;9.260;2023-07-16T15:59:44;26.60;98.40
15357;DHT22;7778;48.792;9.260;2023-07-16T16:02:29;26.60;99.70
15357;DHT22;7778;48.792;9.260;2023-07-16T16:05:16;26.40;99.70
15357;DHT22;7778;48.792;9.260;2023-07-16T16:08:15;26.10;98.60
15357;DHT22;7778;48.792;9.260;2023-07-16T16:11:02;25.90;99.70
15357;DHT22;7778;48.792;9.260;2023-07-16T16:13:50;25.60;99.90
15357;DHT22;7778;48.792;9.260;2023-07-16T16:16:36;25.60;99.90
15357;DHT22;7778;48.792;9.260;2023-07-16T16:19:23;25.70;99.90
15357;DHT22;7778;48.792;9.260;2023-07-16T16:22:09;25.70;99.90
15357;DHT22;7778;48.792;9.260;2023-07-16T16:24:54;25.60;99.50
15357;DHT22;7778;48.792;9.260;2023-07-16T16:27:41;25.60;99.90
15357;DHT22;7778;48.792;9.260;2023-07-16T16:30:29;25.70;99.90
15357;DHT22;7778;48.792;9.260;2023-07-16T16:33:14;25.70;99.90
15357;DHT22;7778;48.792;9.260;2023-07-16T16:36:00;25.50;99.90
15357;DHT22;7778;48.792;9.260;2023-07-16T16:38:47;25.40;99.90
15357;DHT22;7778;48.792;9.260;2023-07-16T16:41:32;25.40;99.60
15357;DHT22;7778;48.792;9.260;2023-07-16T16:44:18;25.40;99.90
15357;DHT22;7778;48.792;9.260;2023-07-16T16:47:05;25.40;99.90
15357;DHT22;7778;48.792;9.260;2023-07-16T16:49:51;25.30;99.80
15357;DHT22;7778;48.792;9.260;2023-07-16T16:52:37;25.30;99.90
15357;DHT22;7778;48.792;9.260;2023-07-16T16:55:23;25.30;99.90
15357;DHT22;7778;48.792;9.260;2023-07-16T16:58:08;25.40;99.90
15357;DHT22;7778;48.792;9.260;2023-07-16T17:00:54;25.30;99.90
15357;DHT22;7778;48.792;9.260;2023-07-16T17:03:41;25.20;99.90
15357;DHT22;7778;48.792;9.260;2023-07-16T17:06:27;25.20;99.90
15357;DHT22;7778;48.792;9.260;2023-07-16T17:09:12;25.10;99.90
15357;DHT22;7778;48.792;9.260;2023-07-16T17:11:58;25.20;99.90
15357;DHT22;7778;48.792;9.260;2023-07-16T17:14:43;25.30;99.90
15357;DHT22;7778;48.792;9.260;2023-07-16T17:17:30;25.50;99.90
15357;DHT22;7778;48.792;9.260;2023-07-16T17:20:17;25.50;99.40
15357;DHT22;7778;48.792;9.260;2023-07-16T17:23:03;25.50;99.90
15357;DHT22;7778;48.792;9.260;2023-07-16T17:25:49;25.60;99.90
15357;DHT22;7778;48.792;9.260;2023-07-16T17:28:35;25.60;99.90
15357;DHT22;7778;48.792;9.260;2023-07-16T17:31:20;25.50;99.70
15357;DHT22;7778;48.792;9.260;2023-07-16T17:34:06;25.30;99.90
15357;DHT22;7778;48.792;9.260;2023-07-16T17:36:52;25.40;99.90
15357;DHT22;7778;48.792;9.260;2023-07-16T17:39:38;25.20;99.90
15357;DHT22;7778;48.792;9.260;2023-07-16T17:42:25;25.20;99.20
15357;DHT22;7778;48.792;9.260;2023-07-16T17:45:10;25.10;99.10
15357;DHT22;7778;48.792;9.260;2023-07-16T17:47:56;25.10;99.90